sensor_id;sensor_type;location;lat;lon;timestamp;P1;durP1;ratioP1;P2;durP2;ratioP2
12912;SDS011;6524;51.368;11.984;2023-04-25T04:00:42;7.07;;;5.70;;
12912;SDS011;6524;51.368;11.984;2023-04-25T04:05:44;9.33;;;6.07;;
12912;SDS011;6524;51.368;11.984;2023-04-25T04:10:45;8.77;;;6.10;;
12912;SDS011;6524;51.368;11.984;2023-04-25T04:15:45;10.90;;;6.83;;
12912;SDS011;6524;51.368;11.984;2023-04-25T04:20:45;11.30;;;6.60;;
12912;SDS011;6524;51.368;11.984;2023-04-25T04:25:46;9.93;;;7.60;;
12912;SDS011;6524;51.368;11.984;2023-04-25T04:30:46;9.80;;;6.73;;
12912;SDS011;6524;51.368;11.984;2023-04-25T04:35:47;10.80;;;8.00;;
12912;SDS011;6524;51.368;11.984;2023-04-25T04:40:48;9.60;;;7.13;;
12912;SDS011;6524;51.368;11.984;2023-04-25T04:45:48;10.50;;;7.20;;
12912;SDS011;6524;51.368;11.984;2023-04-25T04:50:50;12.07;;;8.10;;
12912;SDS011;6524;51.368;11.984;2023-04-25T04:55:50;10.50;;;7.20;;
12912;SDS011;6524;51.368;11.984;2023-04-25T05:00:50;11.33;;;7.43;;
12912;SDS011;6524;51.368;11.984;2023-04-25T05:05:50;11.33;;;7.80;;
12912;SDS011;6524;51.368;11.984;2023-04-25T05:10:51;12.68;;;7.70;;
12912;SDS011;6524;51.368;11.984;2023-04-25T05:15:51;10.10;;;7.70;;
12912;SDS011;6524;51.368;11.984;2023-04-25T05:20:51;9.33;;;7.30;;
12912;SDS011;6524;51.368;11.984;2023-04-25T05:25:53;10.40;;;7.70;;
12912;SDS011;6524;51.368;11.984;2023-04-25T05:30:53;10.23;;;7.30;;
12912;SDS011;6524;51.368;11.984;2023-04-25T05:35:54;11.00;;;7.50;;
12912;SDS011;6524;51.368;11.984;2023-04-25T05:40:54;13.17;;;8.50;;
12912;SDS011;6524;51.368;11.984;2023-04-25T05:45:54;12.47;;;8.73;;
12912;SDS011;6524;51.368;11.984;2023-04-25T05:50:55;10.73;;;7.80;;
12912;SDS011;6524;51.368;11.984;2023-04-25T05:55:55;11.27;;;8.37;;
12912;SDS011;6524;51.368;11.984;2023-04-25T06:00:56;12.88;;;8.13;;
12912;SDS011;6524;51.368;11.984;2023-04-25T06:05:56;11.73;;;8.03;;
12912;SDS011;6524;51.368;11.984;2023-04-25T06:10:56;11.70;;;7.80;;
12912;SDS011;6524;51.368;11.984;2023-04-25T06:15:57;11.93;;;7.97;;
12912;SDS011;6524;51.368;11.984;2023-04-25T06:20:58;11.93;;;7.80;;
12912;SDS011;6524;51.368;11.984;2023-04-25T06:25:58;11.90;;;7.97;;
12912;SDS011;6524;51.368;11.984;2023-04-25T06:31:01;14.65;;;8.02;;
12912;SDS011;6524;51.368;11.984;2023-04-25T06:36:02;13.02;;;8.25;;
12912;SDS011;6524;51.368;11.984;2023-04-25T06:41:03;10.80;;;7.83;;
12912;SDS011;6524;51.368;11.984;2023-04-25T06:46:03;9.93;;;8.20;;
12912;SDS011;6524;51.368;11.984;2023-04-25T06:51:04;10.07;;;7.82;;
12912;SDS011;6524;51.368;11.984;2023-04-25T06:56:05;11.43;;;7.47;;
12912;SDS011;6524;51.368;11.984;2023-04-25T07:01:06;11.15;;;7.38;;
12912;SDS011;6524;51.368;11.984;2023-04-25T07:06:06;10.38;;;7.82;;
12912;SDS011;6524;51.368;11.984;2023-04-25T07:11:07;12.20;;;8.25;;
12912;SDS011;6524;51.368;11.984;2023-04-25T07:16:07;11.73;;;8.00;;
12912;SDS011;6524;51.368;11.984;2023-04-25T07:21:08;10.48;;;7.72;;
12912;SDS011;6524;51.368;11.984;2023-04-25T07:26:08;12.82;;;8.20;;
12912;SDS011;6524;51.368;11.984;2023-04-25T07:31:09;11.77;;;8.20;;
12912;SDS011;6524;51.368;11.984;2023-04-25T07:36:10;5.18;;;3.63;;
12912;SDS011;6524;51.368;11.984;2023-04-25T07:41:13;6.50;;;3.40;;
12912;SDS011;6524;51.368;11.984;2023-04-25T07:46:14;6.10;;;3.00;;
12912;SDS011;6524;51.368;11.984;2023-04-25T07:51:15;5.07;;;3.40;;
12912;SDS011;6524;51.368;11.984;2023-04-25T07:56:15;5.97;;;2.95;;
12912;SDS011;6524;51.368;11.984;2023-04-25T08:01:16;7.47;;;3.17;;
12912;SDS011;6524;51.368;11.984;2023-04-25T08:06:17;7.03;;;3.40;;
12912;SDS011;6524;51.368;11.984;2023-04-25T08:11:18;6.40;;;3.33;;
12912;SDS011;6524;51.368;11.984;2023-04-25T08:16:18;8.55;;;3.70;;
12912;SDS011;6524;51.368;11.984;2023-04-25T08:21:19;7.47;;;2.95;;
12912;SDS011;6524;51.368;11.984;2023-04-25T08:26:19;7.00;;;2.92;;
12912;SDS011;6524;51.368;11.984;2023-04-25T08:31:20;5.88;;;3.20;;
12912;SDS011;6524;51.368;11.984;2023-04-25T08:36:20;8.63;;;3.33;;
12912;SDS011;6524;51.368;11.984;2023-04-25T08:41:21;6.30;;;3.20;;
12912;SDS011;6524;51.368;11.984;2023-04-25T08:46:22;6.30;;;3.30;;
12912;SDS011;6524;51.368;11.984;2023-04-25T08:51:23;9.93;;;4.00;;
12912;SDS011;6524;51.368;11.984;2023-04-25T08:56:26;8.80;;;3.50;;
12912;SDS011;6524;51.368;11.984;2023-04-25T09:01:27;7.60;;;3.63;;
12912;SDS011;6524;51.368;11.984;2023-04-25T09:06:30;10.75;;;4.75;;
12912;SDS011;6524;51.368;11.984;2023-04-25T09:11:32;10.43;;;4.68;;
12912;SDS011;6524;51.368;11.984;2023-04-25T09:16:33;9.40;;;5.07;;
12912;SDS011;6524;51.368;11.984;2023-04-25T09:21:34;9.00;;;5.22;;
12912;SDS011;6524;51.368;11.984;2023-04-25T09:26:35;8.85;;;5.40;;
12912;SDS011;6524;51.368;11.984;2023-04-25T09:31:40;8.73;;;5.53;;
12912;SDS011;6524;51.368;11.984;2023-04-25T09:36:41;8.43;;;5.95;;
12912;SDS011;6524;51.368;11.984;2023-04-25T09:41:42;13.93;;;6.15;;
12912;SDS011;6524;51.368;11.984;2023-04-25T09:46:49;11.13;;;5.82;;
12912;SDS011;6524;51.368;11.984;2023-04-25T09:51:56;11.98;;;5.43;;
12912;SDS011;6524;51.368;11.984;2023-04-25T09:56:58;12.50;;;5.80;;
12912;SDS011;6524;51.368;11.984;2023-04-25T10:02:25;8.25;;;5.88;;
12912;SDS011;6524;51.368;11.984;2023-04-25T10:07:29;9.25;;;5.63;;
12912;SDS011;6524;51.368;11.984;2023-04-25T10:12:31;8.85;;;4.90;;
12912;SDS011;6524;51.368;11.984;2023-04-25T10:17:33;9.50;;;4.32;;
12912;SDS011;6524;51.368;11.984;2023-04-25T10:22:36;7.68;;;4.32;;
12912;SDS011;6524;51.368;11.984;2023-04-25T10:27:39;12.75;;;4.82;;
12912;SDS011;6524;51.368;11.984;2023-04-25T10:32:41;7.38;;;4.07;;
12912;SDS011;6524;51.368;11.984;2023-04-25T10:48:31;5.97;;;3.28;;
12912;SDS011;6524;51.368;11.984;2023-04-25T10:53:33;7.47;;;3.42;;
12912;SDS011;6524;51.368;11.984;2023-04-25T10:58:34;7.60;;;3.28;;
12912;SDS011;6524;51.368;11.984;2023-04-25T11:03:38;7.78;;;3.33;;
12912;SDS011;6524;51.368;11.984;2023-04-25T11:08:48;10.07;;;3.40;;
12912;SDS011;6524;51.368;11.984;2023-04-25T11:13:51;7.93;;;4.03;;
12912;SDS011;6524;51.368;11.984;2023-04-25T11:18:52;7.50;;;3.50;;
12912;SDS011;6524;51.368;11.984;2023-04-25T11:23:53;9.40;;;3.75;;
12912;SDS011;6524;51.368;11.984;2023-04-25T11:28:59;9.65;;;3.47;;
12912;SDS011;6524;51.368;11.984;2023-04-25T11:34:02;8.52;;;3.60;;
12912;SDS011;6524;51.368;11.984;2023-04-25T11:39:03;5.75;;;3.65;;
12912;SDS011;6524;51.368;11.984;2023-04-25T11:44:08;8.50;;;3.55;;
12912;SDS011;6524;51.368;11.984;2023-04-25T11:49:09;6.68;;;3.65;;
12912;SDS011;6524;51.368;11.984;2023-04-25T11:54:10;8.30;;;3.80;;
12912;SDS011;6524;51.368;11.984;2023-04-25T11:59:12;7.55;;;3.40;;
12912;SDS011;6524;51.368;11.984;2023-04-25T12:04:22;6.32;;;3.70;;
12912;SDS011;6524;51.368;11.984;2023-04-25T12:09:28;7.22;;;3.60;;
12912;SDS011;6524;51.368;11.984;2023-04-25T12:14:31;7.97;;;3.55;;
12912;SDS011;6524;51.368;11.984;2023-04-25T12:19:33;6.40;;;3.45;;
12912;SDS011;6524;51.368;11.984;2023-04-25T12:24:39;8.82;;;3.47;;
12912;SDS011;6524;51.368;11.984;2023-04-25T12:29:40;6.20;;;3.15;;
12912;SDS011;6524;51.368;11.984;2023-04-25T12:34:53;8.40;;;3.50;;
12912;SDS011;6524;51.368;11.984;2023-04-25T12:39:53;5.78;;;2.80;;
12912;SDS011;6524;51.368;11.984;2023-04-25T12:44:53;7.05;;;3.55;;
12912;SDS011;6524;51.368;11.984;2023-04-25T12:49:54;6.85;;;3.10;;
12912;SDS011;6524;51.368;11.984;2023-04-25T12:54:54;4.18;;;2.70;;
12912;SDS011;6524;51.368;11.984;2023-04-25T12:59:54;5.97;;;2.95;;
12912;SDS011;6524;51.368;11.984;2023-04-25T13:04:55;6.90;;;3.20;;
12912;SDS011;6524;51.368;11.984;2023-04-25T13:09:55;6.38;;;2.63;;
12912;SDS011;6524;51.368;11.984;2023-04-25T13:14:57;9.45;;;2.67;;
12912;SDS011;6524;51.368;11.984;2023-04-25T13:19:57;5.80;;;3.05;;
12912;SDS011;6524;51.368;11.984;2023-04-25T13:24:57;5.68;;;2.70;;
12912;SDS011;6524;51.368;11.984;2023-04-25T13:29:58;5.20;;;2.83;;
12912;SDS011;6524;51.368;11.984;2023-04-25T13:34:58;5.32;;;2.60;;
12912;SDS011;6524;51.368;11.984;2023-04-25T13:39:59;5.03;;;3.25;;
12912;SDS011;6524;51.368;11.984;2023-04-25T13:45:01;5.35;;;2.50;;
12912;SDS011;6524;51.368;11.984;2023-04-25T13:50:01;5.53;;;2.60;;
12912;SDS011;6524;51.368;11.984;2023-04-25T13:55:03;5.03;;;2.50;;
12912;SDS011;6524;51.368;11.984;2023-04-25T14:00:07;5.78;;;2.33;;
12912;SDS011;6524;51.368;11.984;2023-04-25T14:05:08;4.47;;;2.60;;
12912;SDS011;6524;51.368;11.984;2023-04-25T14:10:10;5.72;;;2.55;;
12912;SDS011;6524;51.368;11.984;2023-04-25T14:15:10;3.97;;;2.40;;
12912;SDS011;6524;51.368;11.984;2023-04-25T14:20:11;4.72;;;2.50;;
12912;SDS011;6524;51.368;11.984;2023-04-25T14:25:12;8.07;;;2.78;;
12912;SDS011;6524;51.368;11.984;2023-04-25T14:30:12;5.05;;;2.58;;
12912;SDS011;6524;51.368;11.984;2023-04-25T14:35:13;5.22;;;2.63;;
12912;SDS011;6524;51.368;11.984;2023-04-25T14:40:14;4.50;;;2.72;;
12912;SDS011;6524;51.368;11.984;2023-04-25T14:45:17;4.55;;;2.45;;
12912;SDS011;6524;51.368;11.984;2023-04-25T14:50:18;3.88;;;2.63;;
12912;SDS011;6524;51.368;11.984;2023-04-25T14:55:19;6.00;;;2.50;;
12912;SDS011;6524;51.368;11.984;2023-04-25T15:00:28;5.28;;;2.60;;
12912;SDS011;6524;51.368;11.984;2023-04-25T15:05:29;6.60;;;2.50;;
12912;SDS011;6524;51.368;11.984;2023-04-25T15:10:30;5.70;;;2.50;;
12912;SDS011;6524;51.368;11.984;2023-04-25T15:15:31;6.82;;;2.63;;
12912;SDS011;6524;51.368;11.984;2023-04-25T15:20:31;6.13;;;2.40;;
12912;SDS011;6524;51.368;11.984;2023-04-25T15:25:31;5.32;;;2.67;;
12912;SDS011;6524;51.368;11.984;2023-04-25T15:30:32;4.07;;;2.60;;
12912;SDS011;6524;51.368;11.984;2023-04-25T15:35:32;6.15;;;2.40;;
12912;SDS011;6524;51.368;11.984;2023-04-25T15:40:35;3.42;;;2.17;;
12912;SDS011;6524;51.368;11.984;2023-04-25T15:45:36;3.88;;;2.60;;
12912;SDS011;6524;51.368;11.984;2023-04-25T15:50:36;6.13;;;2.35;;
12912;SDS011;6524;51.368;11.984;2023-04-25T15:55:37;5.38;;;2.60;;
12912;SDS011;6524;51.368;11.984;2023-04-25T16:00:38;4.88;;;2.60;;
12912;SDS011;6524;51.368;11.984;2023-04-25T16:05:39;6.05;;;2.53;;
12912;SDS011;6524;51.368;11.984;2023-04-25T16:10:40;4.88;;;2.40;;
12912;SDS011;6524;51.368;11.984;2023-04-25T16:15:41;6.25;;;2.50;;
12912;SDS011;6524;51.368;11.984;2023-04-25T16:20:41;4.15;;;2.45;;
12912;SDS011;6524;51.368;11.984;2023-04-25T16:25:43;5.13;;;2.55;;
12912;SDS011;6524;51.368;11.984;2023-04-25T16:30:44;6.05;;;2.80;;
12912;SDS011;6524;51.368;11.984;2023-04-25T16:35:46;5.18;;;2.58;;
12912;SDS011;6524;51.368;11.984;2023-04-25T16:40:49;5.30;;;2.60;;
12912;SDS011;6524;51.368;11.984;2023-04-25T16:45:49;5.13;;;2.58;;
12912;SDS011;6524;51.368;11.984;2023-04-25T16:50:50;4.78;;;2.58;;
12912;SDS011;6524;51.368;11.984;2023-04-25T16:55:51;4.97;;;2.75;;
12912;SDS011;6524;51.368;11.984;2023-04-25T17:00:52;6.18;;;2.97;;
12912;SDS011;6524;51.368;11.984;2023-04-25T17:05:54;6.78;;;2.75;;
12912;SDS011;6524;51.368;11.984;2023-04-25T17:10:56;6.25;;;3.03;;
12912;SDS011;6524;51.368;11.984;2023-04-25T17:15:56;7.05;;;3.20;;
12912;SDS011;6524;51.368;11.984;2023-04-25T17:20:57;6.07;;;3.13;;
12912;SDS011;6524;51.368;11.984;2023-04-25T17:25:57;6.15;;;3.03;;
12912;SDS011;6524;51.368;11.984;2023-04-25T17:30:58;5.82;;;2.50;;
12912;SDS011;6524;51.368;11.984;2023-04-25T17:35:58;5.22;;;2.63;;
12912;SDS011;6524;51.368;11.984;2023-04-25T17:40:59;5.38;;;2.60;;
12912;SDS011;6524;51.368;11.984;2023-04-25T17:45:59;3.47;;;2.60;;
12912;SDS011;6524;51.368;11.984;2023-04-25T17:51:00;4.05;;;2.63;;
12912;SDS011;6524;51.368;11.984;2023-04-25T17:56:00;5.40;;;2.33;;
12912;SDS011;6524;51.368;11.984;2023-04-25T18:01:01;2.70;;;2.00;;
12912;SDS011;6524;51.368;11.984;2023-04-25T18:06:04;3.35;;;2.53;;
12912;SDS011;6524;51.368;11.984;2023-04-25T18:11:05;3.03;;;2.60;;
12912;SDS011;6524;51.368;11.984;2023-04-25T18:16:07;6.57;;;2.75;;
12912;SDS011;6524;51.368;11.984;2023-04-25T18:21:07;4.97;;;2.70;;
12912;SDS011;6524;51.368;11.984;2023-04-25T18:26:08;3.72;;;2.20;;
12912;SDS011;6524;51.368;11.984;2023-04-25T18:31:08;4.00;;;2.08;;
12912;SDS011;6524;51.368;11.984;2023-04-25T18:36:08;4.28;;;2.20;;
12912;SDS011;6524;51.368;11.984;2023-04-25T18:41:09;4.47;;;2.28;;
12912;SDS011;6524;51.368;11.984;2023-04-25T18:46:09;2.92;;;1.92;;
12912;SDS011;6524;51.368;11.984;2023-04-25T18:51:10;3.67;;;1.95;;
12912;SDS011;6524;51.368;11.984;2023-04-25T18:56:10;4.55;;;2.08;;
12912;SDS011;6524;51.368;11.984;2023-04-25T19:01:12;3.05;;;2.50;;
12912;SDS011;6524;51.368;11.984;2023-04-25T19:06:14;3.63;;;2.10;;
12912;SDS011;6524;51.368;11.984;2023-04-25T19:11:15;2.92;;;2.10;;
12912;SDS011;6524;51.368;11.984;2023-04-25T19:16:15;3.58;;;2.13;;
12912;SDS011;6524;51.368;11.984;2023-04-25T19:21:16;2.43;;;2.07;;
12912;SDS011;6524;51.368;11.984;2023-04-25T19:26:17;5.05;;;2.40;;
12912;SDS011;6524;51.368;11.984;2023-04-25T19:31:17;3.53;;;2.27;;
12912;SDS011;6524;51.368;11.984;2023-04-25T19:36:18;4.82;;;2.47;;
12912;SDS011;6524;51.368;11.984;2023-04-25T19:41:21;4.45;;;2.88;;
12912;SDS011;6524;51.368;11.984;2023-04-25T19:46:21;4.43;;;2.38;;
12912;SDS011;6524;51.368;11.984;2023-04-25T19:51:22;5.30;;;2.40;;
12912;SDS011;6524;51.368;11.984;2023-04-25T19:56:23;3.93;;;2.30;;
12912;SDS011;6524;51.368;11.984;2023-04-25T20:01:23;4.17;;;2.30;;
12912;SDS011;6524;51.368;11.984;2023-04-25T20:06:24;4.47;;;2.85;;
12912;SDS011;6524;51.368;11.984;2023-04-25T20:11:24;3.67;;;2.40;;
12912;SDS011;6524;51.368;11.984;2023-04-25T20:16:28;4.17;;;3.07;;
12912;SDS011;6524;51.368;11.984;2023-04-25T20:21:28;4.07;;;2.45;;
12912;SDS011;6524;51.368;11.984;2023-04-25T20:26:28;5.87;;;2.57;;
12912;SDS011;6524;51.368;11.984;2023-04-25T20:31:32;3.40;;;2.50;;
12912;SDS011;6524;51.368;11.984;2023-04-25T20:36:35;3.05;;;2.53;;
12912;SDS011;6524;51.368;11.984;2023-04-25T20:41:36;3.20;;;2.60;;
12912;SDS011;6524;51.368;11.984;2023-04-25T20:46:37;4.38;;;2.65;;
12912;SDS011;6524;51.368;11.984;2023-04-25T20:51:39;4.80;;;2.60;;
12912;SDS011;6524;51.368;11.984;2023-04-25T20:56:39;3.23;;;2.60;;
12912;SDS011;6524;51.368;11.984;2023-04-25T21:01:40;5.37;;;2.50;;
12912;SDS011;6524;51.368;11.984;2023-04-25T21:06:41;4.50;;;2.50;;
12912;SDS011;6524;51.368;11.984;2023-04-25T21:11:41;3.57;;;2.50;;
12912;SDS011;6524;51.368;11.984;2023-04-25T21:16:42;4.63;;;2.67;;
12912;SDS011;6524;51.368;11.984;2023-04-25T21:21:43;3.63;;;2.53;;
12912;SDS011;6524;51.368;11.984;2023-04-25T21:26:43;4.57;;;2.60;;
12912;SDS011;6524;51.368;11.984;2023-04-25T21:31:44;6.10;;;2.70;;
12912;SDS011;6524;51.368;11.984;2023-04-25T21:36:45;4.43;;;2.47;;
12912;SDS011;6524;51.368;11.984;2023-04-25T21:41:47;3.83;;;2.47;;
12912;SDS011;6524;51.368;11.984;2023-04-25T21:46:48;5.03;;;2.73;;
12912;SDS011;6524;51.368;11.984;2023-04-25T21:51:49;5.13;;;2.60;;
12912;SDS011;6524;51.368;11.984;2023-04-25T21:56:50;3.40;;;2.40;;
12912;SDS011;6524;51.368;11.984;2023-04-25T22:08:07;3.37;;;2.60;;
12912;SDS011;6524;51.368;11.984;2023-04-25T22:13:08;3.13;;;2.50;;
12912;SDS011;6524;51.368;11.984;2023-04-25T22:18:09;3.40;;;2.20;;
12912;SDS011;6524;51.368;11.984;2023-04-25T22:23:09;3.73;;;2.77;;
12912;SDS011;6524;51.368;11.984;2023-04-25T22:28:10;3.50;;;2.23;;
12912;SDS011;6524;51.368;11.984;2023-04-25T22:33:12;2.47;;;2.00;;
12912;SDS011;6524;51.368;11.984;2023-04-25T22:38:12;3.53;;;2.20;;
12912;SDS011;6524;51.368;11.984;2023-04-25T22:43:13;4.30;;;2.20;;
12912;SDS011;6524;51.368;11.984;2023-04-25T22:48:14;3.90;;;2.10;;
12912;SDS011;6524;51.368;11.984;2023-04-25T22:53:16;3.33;;;2.57;;
12912;SDS011;6524;51.368;11.984;2023-04-25T22:58:16;3.70;;;2.20;;
12912;SDS011;6524;51.368;11.984;2023-04-25T23:03:17;3.47;;;2.30;;
12912;SDS011;6524;51.368;11.984;2023-04-25T23:08:18;3.10;;;2.30;;
12912;SDS011;6524;51.368;11.984;2023-04-25T23:13:18;3.57;;;2.40;;
12912;SDS011;6524;51.368;11.984;2023-04-25T23:18:19;3.27;;;2.60;;
12912;SDS011;6524;51.368;11.984;2023-04-25T23:23:20;3.07;;;2.50;;
12912;SDS011;6524;51.368;11.984;2023-04-25T23:28:21;2.97;;;2.40;;
12912;SDS011;6524;51.368;11.984;2023-04-25T23:33:21;3.37;;;2.80;;
12912;SDS011;6524;51.368;11.984;2023-04-25T23:38:22;4.30;;;2.63;;
12912;SDS011;6524;51.368;11.984;2023-04-25T23:43:22;3.47;;;2.43;;
12912;SDS011;6524;51.368;11.984;2023-04-25T23:48:22;4.60;;;2.30;;
12912;SDS011;6524;51.368;11.984;2023-04-25T23:53:23;4.73;;;2.97;;
12912;SDS011;6524;51.368;11.984;2023-04-25T23:58:23;4.57;;;2.60;;
